This is the latest recevied weather packets stored in our database for station/object OE6ACM-14. If no packets are shown the sender has not sent any weather packets the latest 10 day(s).
| Time | Temp. | Humidity | Pressure | Rain* | Wind** | Luminosity | Snow |
|---|---|---|---|---|---|---|---|
| 1777446765 | 8.33° C | 77% | 931.9 hPa | - | - | - | - |
| 1777446465 | 8.33° C | 77% | 931.8 hPa | - | - | - | - |
| 1777446165 | 8.33° C | 78% | 931.8 hPa | - | - | - | - |
| 1777445865 | 7.78° C | 78% | 931.8 hPa | - | - | - | - |
| 1777445565 | 7.22° C | 78% | 931.8 hPa | - | - | - | - |
| 1777445265 | 7.22° C | 78% | 931.9 hPa | - | - | - | - |
| 1777444965 | 7.22° C | 78% | 931.9 hPa | - | - | - | - |
| 1777444665 | 7.22° C | 78% | 931.9 hPa | - | - | - | - |
| 1777444365 | 6.67° C | 78% | 931.8 hPa | - | - | - | - |
| 1777444065 | 6.67° C | 78% | 931.8 hPa | - | - | - | - |
| 1777443765 | 6.67° C | 77% | 931.8 hPa | - | - | - | - |
| 1777443465 | 7.22° C | 78% | 931.7 hPa | - | - | - | - |
| 1777443165 | 6.67° C | 78% | 931.7 hPa | - | - | - | - |
| 1777442597 | 6.11° C | 77% | 931.7 hPa | - | - | - | - |
| 1777442297 | 6.11° C | 77% | 931.7 hPa | - | - | - | - |
| 1777441997 | 6.11° C | 76% | 931.7 hPa | - | - | - | - |
| 1777441697 | 5.56° C | 75% | 931.7 hPa | - | - | - | - |
| 1777441397 | 5.56° C | 75% | 931.6 hPa | - | - | - | - |
| 1777441097 | 5.56° C | 73% | 931.5 hPa | - | - | - | - |
| 1777440797 | 6.11° C | 71% | 931.4 hPa | - | - | - | - |
| 1777440497 | 6.67° C | 67% | 931.2 hPa | - | - | - | - |
| 1777440197 | 7.22° C | 63% | 931.1 hPa | - | - | - | - |
| 1777439897 | 7.78° C | 60% | 930.8 hPa | - | - | - | - |
| 1777439597 | 8.33° C | 56% | 930.7 hPa | - | - | - | - |
| 1777439297 | 8.89° C | 53% | 930.6 hPa | - | - | - | - |
* Rain since midnight (hover to see other rain measurements)
** Current wind speed in m/s (hover to see current wind gust speed)